sensor_id;sensor_type;location;lat;lon;timestamp;P1;durP1;ratioP1;P2;durP2;ratioP2
10031;SDS011;5056;44.272;19.892;2023-06-10T00:00:49;14.23;;;12.95;;
10031;SDS011;5056;44.272;19.892;2023-06-10T00:03:17;14.50;;;13.10;;
10031;SDS011;5056;44.272;19.892;2023-06-10T00:05:44;15.55;;;14.15;;
10031;SDS011;5056;44.272;19.892;2023-06-10T00:08:13;14.30;;;13.07;;
10031;SDS011;5056;44.272;19.892;2023-06-10T00:10:40;14.27;;;13.18;;
10031;SDS011;5056;44.272;19.892;2023-06-10T00:13:11;13.40;;;12.38;;
10031;SDS011;5056;44.272;19.892;2023-06-10T00:15:40;14.98;;;13.73;;
10031;SDS011;5056;44.272;19.892;2023-06-10T00:18:10;13.70;;;12.45;;
10031;SDS011;5056;44.272;19.892;2023-06-10T00:20:42;14.95;;;13.68;;
10031;SDS011;5056;44.272;19.892;2023-06-10T00:23:09;15.43;;;13.52;;
10031;SDS011;5056;44.272;19.892;2023-06-10T00:25:38;14.63;;;13.40;;
10031;SDS011;5056;44.272;19.892;2023-06-10T00:28:05;15.35;;;13.93;;
10031;SDS011;5056;44.272;19.892;2023-06-10T00:30:34;14.82;;;13.43;;
10031;SDS011;5056;44.272;19.892;2023-06-10T00:33:04;13.73;;;12.48;;
10031;SDS011;5056;44.272;19.892;2023-06-10T00:35:31;14.77;;;13.57;;
10031;SDS011;5056;44.272;19.892;2023-06-10T00:37:58;14.50;;;13.20;;
10031;SDS011;5056;44.272;19.892;2023-06-10T00:40:26;14.85;;;13.65;;
10031;SDS011;5056;44.272;19.892;2023-06-10T00:42:57;15.63;;;14.30;;
10031;SDS011;5056;44.272;19.892;2023-06-10T00:45:24;15.10;;;13.82;;
10031;SDS011;5056;44.272;19.892;2023-06-10T00:47:51;14.48;;;13.38;;
10031;SDS011;5056;44.272;19.892;2023-06-10T00:50:20;14.65;;;13.30;;
10031;SDS011;5056;44.272;19.892;2023-06-10T00:52:47;13.70;;;12.60;;
10031;SDS011;5056;44.272;19.892;2023-06-10T00:58:14;15.35;;;13.95;;
10031;SDS011;5056;44.272;19.892;2023-06-10T01:00:43;14.85;;;13.65;;
10031;SDS011;5056;44.272;19.892;2023-06-10T01:03:11;15.48;;;14.15;;
10031;SDS011;5056;44.272;19.892;2023-06-10T01:05:43;15.48;;;13.90;;
10031;SDS011;5056;44.272;19.892;2023-06-10T01:08:15;15.48;;;13.90;;
10031;SDS011;5056;44.272;19.892;2023-06-10T01:10:47;14.73;;;13.43;;
10031;SDS011;5056;44.272;19.892;2023-06-10T01:13:21;14.77;;;13.52;;
10031;SDS011;5056;44.272;19.892;2023-06-10T01:15:53;15.20;;;13.90;;
10031;SDS011;5056;44.272;19.892;2023-06-10T01:18:23;15.13;;;13.65;;
10031;SDS011;5056;44.272;19.892;2023-06-10T01:21:00;14.52;;;13.02;;
10031;SDS011;5056;44.272;19.892;2023-06-10T01:23:30;15.10;;;13.73;;
10031;SDS011;5056;44.272;19.892;2023-06-10T01:25:59;14.63;;;13.23;;
10031;SDS011;5056;44.272;19.892;2023-06-10T01:28:29;14.23;;;12.93;;
10031;SDS011;5056;44.272;19.892;2023-06-10T01:31:06;15.65;;;13.95;;
10031;SDS011;5056;44.272;19.892;2023-06-10T01:33:37;14.35;;;13.02;;
10031;SDS011;5056;44.272;19.892;2023-06-10T01:39:05;15.50;;;14.10;;
10031;SDS011;5056;44.272;19.892;2023-06-10T01:41:35;15.18;;;13.90;;
10031;SDS011;5056;44.272;19.892;2023-06-10T01:46:52;14.70;;;13.50;;
10031;SDS011;5056;44.272;19.892;2023-06-10T01:49:20;15.57;;;14.15;;
10031;SDS011;5056;44.272;19.892;2023-06-10T01:51:49;14.90;;;13.55;;
10031;SDS011;5056;44.272;19.892;2023-06-10T01:54:17;15.18;;;13.88;;
10031;SDS011;5056;44.272;19.892;2023-06-10T01:56:44;13.80;;;12.52;;
10031;SDS011;5056;44.272;19.892;2023-06-10T01:59:13;14.13;;;12.93;;
10031;SDS011;5056;44.272;19.892;2023-06-10T02:01:41;15.20;;;13.80;;
10031;SDS011;5056;44.272;19.892;2023-06-10T02:04:11;14.70;;;13.20;;
10031;SDS011;5056;44.272;19.892;2023-06-10T02:06:48;14.77;;;13.57;;
10031;SDS011;5056;44.272;19.892;2023-06-10T02:09:19;15.07;;;13.75;;
10031;SDS011;5056;44.272;19.892;2023-06-10T02:11:48;13.88;;;12.73;;
10031;SDS011;5056;44.272;19.892;2023-06-10T02:14:16;14.90;;;13.50;;
10031;SDS011;5056;44.272;19.892;2023-06-10T02:16:43;17.13;;;14.55;;
10031;SDS011;5056;44.272;19.892;2023-06-10T02:19:25;14.73;;;13.55;;
10031;SDS011;5056;44.272;19.892;2023-06-10T02:21:53;15.73;;;14.20;;
10031;SDS011;5056;44.272;19.892;2023-06-10T02:24:22;15.23;;;13.85;;
10031;SDS011;5056;44.272;19.892;2023-06-10T02:33:00;14.60;;;13.27;;
10031;SDS011;5056;44.272;19.892;2023-06-10T02:35:30;16.27;;;14.88;;
10031;SDS011;5056;44.272;19.892;2023-06-10T02:37:57;15.02;;;13.80;;
10031;SDS011;5056;44.272;19.892;2023-06-10T02:40:27;15.00;;;13.77;;
10031;SDS011;5056;44.272;19.892;2023-06-10T02:42:57;16.13;;;14.48;;
10031;SDS011;5056;44.272;19.892;2023-06-10T02:45:29;14.95;;;13.45;;
10031;SDS011;5056;44.272;19.892;2023-06-10T02:47:59;14.73;;;13.40;;
10031;SDS011;5056;44.272;19.892;2023-06-10T02:50:28;15.23;;;13.90;;
10031;SDS011;5056;44.272;19.892;2023-06-10T02:52:55;15.10;;;13.80;;
10031;SDS011;5056;44.272;19.892;2023-06-10T02:55:22;14.93;;;13.65;;
10031;SDS011;5056;44.272;19.892;2023-06-10T02:57:54;15.73;;;14.13;;
10031;SDS011;5056;44.272;19.892;2023-06-10T03:00:22;15.32;;;13.93;;
10031;SDS011;5056;44.272;19.892;2023-06-10T03:02:50;13.70;;;12.38;;
10031;SDS011;5056;44.272;19.892;2023-06-10T03:05:18;15.60;;;14.30;;
10031;SDS011;5056;44.272;19.892;2023-06-10T03:07:45;15.40;;;13.82;;
10031;SDS011;5056;44.272;19.892;2023-06-10T03:10:13;15.40;;;14.02;;
10031;SDS011;5056;44.272;19.892;2023-06-10T03:12:41;15.05;;;13.45;;
10031;SDS011;5056;44.272;19.892;2023-06-10T03:15:15;15.20;;;13.68;;
10031;SDS011;5056;44.272;19.892;2023-06-10T03:17:44;14.95;;;13.55;;
10031;SDS011;5056;44.272;19.892;2023-06-10T03:20:12;15.45;;;14.07;;
10031;SDS011;5056;44.272;19.892;2023-06-10T03:22:41;14.43;;;13.23;;
10031;SDS011;5056;44.272;19.892;2023-06-10T03:25:09;14.07;;;12.90;;
10031;SDS011;5056;44.272;19.892;2023-06-10T03:27:39;14.82;;;13.52;;
10031;SDS011;5056;44.272;19.892;2023-06-10T03:30:08;14.35;;;13.05;;
10031;SDS011;5056;44.272;19.892;2023-06-10T03:32:41;15.27;;;13.98;;
10031;SDS011;5056;44.272;19.892;2023-06-10T03:35:10;14.13;;;12.82;;
10031;SDS011;5056;44.272;19.892;2023-06-10T03:37:38;14.73;;;13.43;;
10031;SDS011;5056;44.272;19.892;2023-06-10T03:40:05;15.27;;;13.88;;
10031;SDS011;5056;44.272;19.892;2023-06-10T03:42:33;14.20;;;13.02;;
10031;SDS011;5056;44.272;19.892;2023-06-10T03:45:00;14.55;;;13.30;;
10031;SDS011;5056;44.272;19.892;2023-06-10T03:47:34;15.38;;;13.68;;
10031;SDS011;5056;44.272;19.892;2023-06-10T03:50:02;13.50;;;12.30;;
10031;SDS011;5056;44.272;19.892;2023-06-10T03:52:38;14.40;;;12.95;;
10031;SDS011;5056;44.272;19.892;2023-06-10T03:55:06;14.90;;;13.70;;
10031;SDS011;5056;44.272;19.892;2023-06-10T03:57:36;14.85;;;13.45;;
10031;SDS011;5056;44.272;19.892;2023-06-10T04:00:03;15.15;;;13.75;;
10031;SDS011;5056;44.272;19.892;2023-06-10T04:02:37;13.00;;;11.90;;
10031;SDS011;5056;44.272;19.892;2023-06-10T04:05:10;13.27;;;12.07;;
10031;SDS011;5056;44.272;19.892;2023-06-10T04:07:40;14.18;;;12.90;;
10031;SDS011;5056;44.272;19.892;2023-06-10T04:10:15;15.10;;;13.80;;
10031;SDS011;5056;44.272;19.892;2023-06-10T04:12:43;15.00;;;13.52;;
10031;SDS011;5056;44.272;19.892;2023-06-10T04:15:24;13.55;;;12.45;;
10031;SDS011;5056;44.272;19.892;2023-06-10T04:17:55;15.00;;;13.57;;
10031;SDS011;5056;44.272;19.892;2023-06-10T04:20:22;14.77;;;13.52;;
10031;SDS011;5056;44.272;19.892;2023-06-10T04:22:51;13.82;;;12.73;;
10031;SDS011;5056;44.272;19.892;2023-06-10T04:25:18;15.10;;;13.68;;
10031;SDS011;5056;44.272;19.892;2023-06-10T04:27:48;14.07;;;12.77;;
10031;SDS011;5056;44.272;19.892;2023-06-10T04:30:16;15.90;;;14.38;;
10031;SDS011;5056;44.272;19.892;2023-06-10T04:32:50;14.02;;;12.93;;
10031;SDS011;5056;44.272;19.892;2023-06-10T04:35:20;16.73;;;15.13;;
10031;SDS011;5056;44.272;19.892;2023-06-10T04:37:47;16.77;;;15.15;;
10031;SDS011;5056;44.272;19.892;2023-06-10T04:40:14;16.50;;;14.80;;
10031;SDS011;5056;44.272;19.892;2023-06-10T04:42:42;15.10;;;13.68;;
10031;SDS011;5056;44.272;19.892;2023-06-10T04:45:09;14.88;;;13.68;;
10031;SDS011;5056;44.272;19.892;2023-06-10T04:47:37;15.85;;;14.45;;
10031;SDS011;5056;44.272;19.892;2023-06-10T04:50:04;17.80;;;16.00;;
10031;SDS011;5056;44.272;19.892;2023-06-10T04:52:34;16.67;;;15.20;;
10031;SDS011;5056;44.272;19.892;2023-06-10T04:55:01;16.48;;;14.73;;
10031;SDS011;5056;44.272;19.892;2023-06-10T04:57:32;15.70;;;14.30;;
10031;SDS011;5056;44.272;19.892;2023-06-10T05:02:47;15.75;;;14.45;;
10031;SDS011;5056;44.272;19.892;2023-06-10T05:05:18;14.98;;;13.60;;
10031;SDS011;5056;44.272;19.892;2023-06-10T05:07:47;13.88;;;12.73;;
10031;SDS011;5056;44.272;19.892;2023-06-10T05:13:10;15.18;;;13.73;;
10031;SDS011;5056;44.272;19.892;2023-06-10T05:15:37;15.05;;;13.75;;
10031;SDS011;5056;44.272;19.892;2023-06-10T05:18:05;14.48;;;13.02;;
10031;SDS011;5056;44.272;19.892;2023-06-10T05:20:33;14.23;;;13.02;;
10031;SDS011;5056;44.272;19.892;2023-06-10T05:23:02;14.90;;;13.50;;
10031;SDS011;5056;44.272;19.892;2023-06-10T05:25:30;14.18;;;13.07;;
10031;SDS011;5056;44.272;19.892;2023-06-10T05:27:57;14.02;;;12.93;;
10031;SDS011;5056;44.272;19.892;2023-06-10T05:30:26;14.82;;;13.63;;
10031;SDS011;5056;44.272;19.892;2023-06-10T05:32:53;16.00;;;14.60;;
10031;SDS011;5056;44.272;19.892;2023-06-10T05:35:21;16.02;;;14.63;;
10031;SDS011;5056;44.272;19.892;2023-06-10T05:37:49;14.98;;;13.63;;
10031;SDS011;5056;44.272;19.892;2023-06-10T05:40:21;14.00;;;12.80;;
10031;SDS011;5056;44.272;19.892;2023-06-10T05:42:48;13.82;;;12.73;;
10031;SDS011;5056;44.272;19.892;2023-06-10T05:45:15;14.93;;;13.60;;
10031;SDS011;5056;44.272;19.892;2023-06-10T05:47:44;14.05;;;12.85;;
10031;SDS011;5056;44.272;19.892;2023-06-10T05:50:11;14.25;;;13.07;;
10031;SDS011;5056;44.272;19.892;2023-06-10T05:52:38;13.80;;;12.77;;
10031;SDS011;5056;44.272;19.892;2023-06-10T05:55:07;16.02;;;14.13;;
10031;SDS011;5056;44.272;19.892;2023-06-10T05:57:40;13.98;;;12.80;;
10031;SDS011;5056;44.272;19.892;2023-06-10T06:00:08;13.85;;;12.75;;
10031;SDS011;5056;44.272;19.892;2023-06-10T06:02:36;13.63;;;12.52;;
10031;SDS011;5056;44.272;19.892;2023-06-10T06:05:04;13.88;;;12.77;;
10031;SDS011;5056;44.272;19.892;2023-06-10T06:07:32;13.73;;;12.73;;
10031;SDS011;5056;44.272;19.892;2023-06-10T06:10:01;13.07;;;12.07;;
10031;SDS011;5056;44.272;19.892;2023-06-10T06:12:28;13.02;;;11.88;;
10031;SDS011;5056;44.272;19.892;2023-06-10T06:14:57;12.05;;;11.05;;
10031;SDS011;5056;44.272;19.892;2023-06-10T06:17:23;12.43;;;11.20;;
10031;SDS011;5056;44.272;19.892;2023-06-10T06:19:51;11.95;;;10.98;;
10031;SDS011;5056;44.272;19.892;2023-06-10T06:22:19;12.25;;;11.15;;
10031;SDS011;5056;44.272;19.892;2023-06-10T06:24:47;12.43;;;11.35;;
10031;SDS011;5056;44.272;19.892;2023-06-10T06:27:15;11.20;;;10.30;;
10031;SDS011;5056;44.272;19.892;2023-06-10T06:29:43;9.98;;;9.15;;
10031;SDS011;5056;44.272;19.892;2023-06-10T06:32:14;10.30;;;9.60;;
10031;SDS011;5056;44.272;19.892;2023-06-10T06:34:41;9.68;;;8.88;;
10031;SDS011;5056;44.272;19.892;2023-06-10T06:37:08;10.18;;;9.38;;
10031;SDS011;5056;44.272;19.892;2023-06-10T06:39:48;10.45;;;9.02;;
10031;SDS011;5056;44.272;19.892;2023-06-10T06:42:17;9.43;;;8.73;;
10031;SDS011;5056;44.272;19.892;2023-06-10T06:44:44;10.18;;;9.30;;
10031;SDS011;5056;44.272;19.892;2023-06-10T06:47:37;10.00;;;9.20;;
10031;SDS011;5056;44.272;19.892;2023-06-10T06:50:04;9.57;;;8.55;;
10031;SDS011;5056;44.272;19.892;2023-06-10T06:52:32;8.77;;;8.07;;
10031;SDS011;5056;44.272;19.892;2023-06-10T06:55:02;9.32;;;8.52;;
10031;SDS011;5056;44.272;19.892;2023-06-10T06:57:29;8.20;;;7.50;;
10031;SDS011;5056;44.272;19.892;2023-06-10T06:59:58;8.43;;;7.82;;
10031;SDS011;5056;44.272;19.892;2023-06-10T07:02:28;7.47;;;6.88;;
10031;SDS011;5056;44.272;19.892;2023-06-10T07:04:55;8.07;;;7.45;;
10031;SDS011;5056;44.272;19.892;2023-06-10T07:07:22;8.55;;;7.75;;
10031;SDS011;5056;44.272;19.892;2023-06-10T07:09:51;7.80;;;7.10;;
10031;SDS011;5056;44.272;19.892;2023-06-10T07:12:18;6.80;;;6.22;;
10031;SDS011;5056;44.272;19.892;2023-06-10T07:14:52;7.03;;;6.43;;
10031;SDS011;5056;44.272;19.892;2023-06-10T07:20:21;9.68;;;8.95;;
10031;SDS011;5056;44.272;19.892;2023-06-10T07:22:49;9.00;;;8.20;;
10031;SDS011;5056;44.272;19.892;2023-06-10T07:25:18;9.82;;;8.73;;
10031;SDS011;5056;44.272;19.892;2023-06-10T07:27:45;9.00;;;8.30;;
10031;SDS011;5056;44.272;19.892;2023-06-10T07:30:15;10.57;;;9.63;;
10031;SDS011;5056;44.272;19.892;2023-06-10T07:35:23;8.50;;;7.85;;
10031;SDS011;5056;44.272;19.892;2023-06-10T07:37:50;8.00;;;7.40;;
10031;SDS011;5056;44.272;19.892;2023-06-10T07:40:17;7.63;;;7.03;;
10031;SDS011;5056;44.272;19.892;2023-06-10T07:42:45;7.20;;;6.60;;
10031;SDS011;5056;44.272;19.892;2023-06-10T07:45:12;7.45;;;6.75;;
10031;SDS011;5056;44.272;19.892;2023-06-10T07:47:40;7.93;;;7.32;;
10031;SDS011;5056;44.272;19.892;2023-06-10T07:50:10;7.88;;;7.28;;
10031;SDS011;5056;44.272;19.892;2023-06-10T07:52:37;9.18;;;8.38;;
10031;SDS011;5056;44.272;19.892;2023-06-10T07:55:04;8.07;;;7.28;;
10031;SDS011;5056;44.272;19.892;2023-06-10T07:57:35;7.88;;;7.18;;
10031;SDS011;5056;44.272;19.892;2023-06-10T08:00:05;7.93;;;7.32;;
10031;SDS011;5056;44.272;19.892;2023-06-10T08:02:34;7.90;;;7.30;;
10031;SDS011;5056;44.272;19.892;2023-06-10T08:05:01;7.45;;;6.88;;
10031;SDS011;5056;44.272;19.892;2023-06-10T08:07:33;8.13;;;7.53;;
10031;SDS011;5056;44.272;19.892;2023-06-10T08:10:01;7.82;;;7.13;;
10031;SDS011;5056;44.272;19.892;2023-06-10T08:12:29;7.35;;;6.72;;
10031;SDS011;5056;44.272;19.892;2023-06-10T08:14:57;7.20;;;6.35;;
10031;SDS011;5056;44.272;19.892;2023-06-10T08:17:25;6.13;;;5.72;;
10031;SDS011;5056;44.272;19.892;2023-06-10T08:19:53;7.22;;;6.40;;
10031;SDS011;5056;44.272;19.892;2023-06-10T08:22:22;8.02;;;7.25;;
10031;SDS011;5056;44.272;19.892;2023-06-10T08:24:52;7.47;;;6.97;;
10031;SDS011;5056;44.272;19.892;2023-06-10T08:27:19;7.38;;;6.88;;
10031;SDS011;5056;44.272;19.892;2023-06-10T08:29:47;8.18;;;7.47;;
10031;SDS011;5056;44.272;19.892;2023-06-10T08:32:15;8.48;;;7.78;;
10031;SDS011;5056;44.272;19.892;2023-06-10T08:34:44;7.57;;;6.97;;
10031;SDS011;5056;44.272;19.892;2023-06-10T08:37:12;7.95;;;7.45;;
10031;SDS011;5056;44.272;19.892;2023-06-10T08:39:39;8.05;;;7.40;;
10031;SDS011;5056;44.272;19.892;2023-06-10T08:42:10;8.23;;;7.55;;
10031;SDS011;5056;44.272;19.892;2023-06-10T08:44:41;8.25;;;7.55;;
10031;SDS011;5056;44.272;19.892;2023-06-10T08:47:12;8.82;;;8.07;;
10031;SDS011;5056;44.272;19.892;2023-06-10T08:49:41;7.85;;;7.25;;
10031;SDS011;5056;44.272;19.892;2023-06-10T08:52:16;8.23;;;7.68;;
10031;SDS011;5056;44.272;19.892;2023-06-10T08:54:52;8.00;;;7.28;;
10031;SDS011;5056;44.272;19.892;2023-06-10T08:57:23;9.30;;;8.43;;
10031;SDS011;5056;44.272;19.892;2023-06-10T08:59:50;8.70;;;8.00;;
10031;SDS011;5056;44.272;19.892;2023-06-10T09:02:20;8.52;;;7.93;;
10031;SDS011;5056;44.272;19.892;2023-06-10T09:04:48;8.95;;;8.27;;
10031;SDS011;5056;44.272;19.892;2023-06-10T09:07:16;9.43;;;8.63;;
10031;SDS011;5056;44.272;19.892;2023-06-10T09:09:43;8.27;;;7.68;;
10031;SDS011;5056;44.272;19.892;2023-06-10T09:12:15;9.02;;;8.38;;
10031;SDS011;5056;44.272;19.892;2023-06-10T09:14:43;9.40;;;8.70;;
10031;SDS011;5056;44.272;19.892;2023-06-10T09:17:10;9.48;;;8.60;;
10031;SDS011;5056;44.272;19.892;2023-06-10T09:19:40;9.50;;;8.52;;
10031;SDS011;5056;44.272;19.892;2023-06-10T09:22:07;9.32;;;8.43;;
10031;SDS011;5056;44.272;19.892;2023-06-10T09:24:34;8.50;;;7.90;;
10031;SDS011;5056;44.272;19.892;2023-06-10T09:27:04;7.68;;;7.05;;
10031;SDS011;5056;44.272;19.892;2023-06-10T09:29:37;8.65;;;8.05;;
10031;SDS011;5056;44.272;19.892;2023-06-10T09:32:14;10.05;;;9.35;;
10031;SDS011;5056;44.272;19.892;2023-06-10T09:34:43;9.60;;;8.80;;
10031;SDS011;5056;44.272;19.892;2023-06-10T09:37:28;9.25;;;8.55;;
10031;SDS011;5056;44.272;19.892;2023-06-10T09:40:02;9.43;;;8.82;;
10031;SDS011;5056;44.272;19.892;2023-06-10T09:42:32;9.43;;;8.70;;
10031;SDS011;5056;44.272;19.892;2023-06-10T09:45:09;9.82;;;9.00;;
10031;SDS011;5056;44.272;19.892;2023-06-10T09:47:37;10.15;;;9.35;;
10031;SDS011;5056;44.272;19.892;2023-06-10T09:50:04;9.20;;;8.55;;
10031;SDS011;5056;44.272;19.892;2023-06-10T09:52:36;10.32;;;9.43;;
10031;SDS011;5056;44.272;19.892;2023-06-10T09:55:07;9.80;;;9.05;;
10031;SDS011;5056;44.272;19.892;2023-06-10T09:57:35;10.70;;;9.90;;
10031;SDS011;5056;44.272;19.892;2023-06-10T10:00:07;10.05;;;9.15;;
10031;SDS011;5056;44.272;19.892;2023-06-10T10:02:36;10.57;;;9.63;;
10031;SDS011;5056;44.272;19.892;2023-06-10T10:05:12;10.40;;;9.50;;
10031;SDS011;5056;44.272;19.892;2023-06-10T10:07:40;10.65;;;9.77;;
10031;SDS011;5056;44.272;19.892;2023-06-10T10:10:08;10.13;;;9.32;;
10031;SDS011;5056;44.272;19.892;2023-06-10T10:12:36;10.98;;;10.18;;
10031;SDS011;5056;44.272;19.892;2023-06-10T10:15:08;10.77;;;9.88;;
10031;SDS011;5056;44.272;19.892;2023-06-10T10:17:38;15.23;;;13.93;;
10031;SDS011;5056;44.272;19.892;2023-06-10T10:20:07;12.65;;;11.45;;
10031;SDS011;5056;44.272;19.892;2023-06-10T10:22:37;10.68;;;9.88;;
10031;SDS011;5056;44.272;19.892;2023-06-10T10:25:08;11.32;;;9.30;;
10031;SDS011;5056;44.272;19.892;2023-06-10T10:27:40;9.32;;;8.73;;
10031;SDS011;5056;44.272;19.892;2023-06-10T10:30:15;8.68;;;8.07;;
10031;SDS011;5056;44.272;19.892;2023-06-10T10:32:45;8.48;;;7.88;;
10031;SDS011;5056;44.272;19.892;2023-06-10T10:35:20;8.75;;;8.13;;
10031;SDS011;5056;44.272;19.892;2023-06-10T10:37:48;9.15;;;8.45;;
10031;SDS011;5056;44.272;19.892;2023-06-10T10:40:16;8.40;;;7.90;;
10031;SDS011;5056;44.272;19.892;2023-06-10T10:42:43;9.38;;;8.57;;
10031;SDS011;5056;44.272;19.892;2023-06-10T10:45:12;9.38;;;8.57;;
10031;SDS011;5056;44.272;19.892;2023-06-10T10:47:40;9.85;;;9.05;;
10031;SDS011;5056;44.272;19.892;2023-06-10T10:50:14;9.60;;;8.70;;
10031;SDS011;5056;44.272;19.892;2023-06-10T10:52:52;11.05;;;8.57;;
10031;SDS011;5056;44.272;19.892;2023-06-10T10:55:21;9.20;;;6.50;;
10031;SDS011;5056;44.272;19.892;2023-06-10T10:57:58;7.18;;;6.65;;
10031;SDS011;5056;44.272;19.892;2023-06-10T11:00:30;8.65;;;6.70;;
10031;SDS011;5056;44.272;19.892;2023-06-10T11:03:00;7.18;;;6.68;;
10031;SDS011;5056;44.272;19.892;2023-06-10T11:05:36;8.27;;;7.68;;
10031;SDS011;5056;44.272;19.892;2023-06-10T11:08:04;7.97;;;7.38;;
10031;SDS011;5056;44.272;19.892;2023-06-10T11:10:32;8.13;;;7.43;;
10031;SDS011;5056;44.272;19.892;2023-06-10T11:12:59;7.85;;;7.25;;
10031;SDS011;5056;44.272;19.892;2023-06-10T11:15:28;8.90;;;8.10;;
10031;SDS011;5056;44.272;19.892;2023-06-10T11:18:13;9.23;;;8.52;;
10031;SDS011;5056;44.272;19.892;2023-06-10T11:20:44;10.30;;;9.38;;
10031;SDS011;5056;44.272;19.892;2023-06-10T11:23:24;10.30;;;9.50;;
10031;SDS011;5056;44.272;19.892;2023-06-10T11:26:10;12.55;;;11.55;;
10031;SDS011;5056;44.272;19.892;2023-06-10T11:28:38;9.40;;;8.60;;
10031;SDS011;5056;44.272;19.892;2023-06-10T11:31:09;9.30;;;8.60;;
10031;SDS011;5056;44.272;19.892;2023-06-10T11:33:36;9.57;;;8.63;;
10031;SDS011;5056;44.272;19.892;2023-06-10T11:36:06;9.90;;;9.07;;
10031;SDS011;5056;44.272;19.892;2023-06-10T11:42:00;7.47;;;6.90;;
10031;SDS011;5056;44.272;19.892;2023-06-10T11:44:29;6.30;;;5.90;;
10031;SDS011;5056;44.272;19.892;2023-06-10T11:47:01;7.30;;;6.70;;
10031;SDS011;5056;44.272;19.892;2023-06-10T11:49:30;7.88;;;7.28;;
10031;SDS011;5056;44.272;19.892;2023-06-10T11:51:57;7.10;;;6.60;;
10031;SDS011;5056;44.272;19.892;2023-06-10T11:54:25;7.88;;;7.32;;
10031;SDS011;5056;44.272;19.892;2023-06-10T11:56:57;7.65;;;7.05;;
10031;SDS011;5056;44.272;19.892;2023-06-10T11:59:26;7.57;;;7.05;;
10031;SDS011;5056;44.272;19.892;2023-06-10T12:01:54;9.93;;;9.02;;
10031;SDS011;5056;44.272;19.892;2023-06-10T12:04:23;9.27;;;8.38;;
10031;SDS011;5056;44.272;19.892;2023-06-10T12:06:51;9.13;;;8.43;;
10031;SDS011;5056;44.272;19.892;2023-06-10T12:09:20;8.85;;;8.15;;
10031;SDS011;5056;44.272;19.892;2023-06-10T12:11:49;8.38;;;7.68;;
10031;SDS011;5056;44.272;19.892;2023-06-10T12:17:36;7.60;;;7.10;;
10031;SDS011;5056;44.272;19.892;2023-06-10T12:20:07;7.20;;;6.68;;
10031;SDS011;5056;44.272;19.892;2023-06-10T12:22:37;7.90;;;7.13;;
10031;SDS011;5056;44.272;19.892;2023-06-10T12:25:05;7.75;;;7.15;;
10031;SDS011;5056;44.272;19.892;2023-06-10T12:27:34;8.18;;;7.57;;
10031;SDS011;5056;44.272;19.892;2023-06-10T12:30:03;6.97;;;6.47;;
10031;SDS011;5056;44.272;19.892;2023-06-10T12:32:35;6.55;;;6.07;;
10031;SDS011;5056;44.272;19.892;2023-06-10T12:35:20;7.20;;;6.63;;
10031;SDS011;5056;44.272;19.892;2023-06-10T12:37:55;7.05;;;6.55;;
10031;SDS011;5056;44.272;19.892;2023-06-10T12:40:27;7.03;;;6.40;;
10031;SDS011;5056;44.272;19.892;2023-06-10T12:42:57;6.05;;;5.65;;
10031;SDS011;5056;44.272;19.892;2023-06-10T12:45:28;7.68;;;7.13;;
10031;SDS011;5056;44.272;19.892;2023-06-10T12:48:05;7.25;;;6.65;;
10031;SDS011;5056;44.272;19.892;2023-06-10T12:50:36;5.95;;;5.47;;
10031;SDS011;5056;44.272;19.892;2023-06-10T12:53:05;5.78;;;5.38;;
10031;SDS011;5056;44.272;19.892;2023-06-10T12:55:35;5.50;;;5.10;;
10031;SDS011;5056;44.272;19.892;2023-06-10T12:58:02;5.55;;;5.05;;
10031;SDS011;5056;44.272;19.892;2023-06-10T13:00:30;5.25;;;4.85;;
10031;SDS011;5056;44.272;19.892;2023-06-10T13:03:08;7.68;;;5.00;;
10031;SDS011;5056;44.272;19.892;2023-06-10T13:05:37;7.20;;;6.60;;
10031;SDS011;5056;44.272;19.892;2023-06-10T13:08:06;9.07;;;8.40;;
10031;SDS011;5056;44.272;19.892;2023-06-10T13:10:35;9.07;;;8.32;;
10031;SDS011;5056;44.272;19.892;2023-06-10T13:13:03;8.75;;;8.05;;
10031;SDS011;5056;44.272;19.892;2023-06-10T13:18:21;7.45;;;6.80;;
10031;SDS011;5056;44.272;19.892;2023-06-10T13:20:55;7.70;;;7.03;;
10031;SDS011;5056;44.272;19.892;2023-06-10T13:23:23;7.38;;;6.82;;
10031;SDS011;5056;44.272;19.892;2023-06-10T13:25:54;7.20;;;6.60;;
10031;SDS011;5056;44.272;19.892;2023-06-10T13:28:22;6.60;;;6.20;;
10031;SDS011;5056;44.272;19.892;2023-06-10T13:30:51;9.20;;;8.40;;
10031;SDS011;5056;44.272;19.892;2023-06-10T13:33:23;9.13;;;8.10;;
10031;SDS011;5056;44.272;19.892;2023-06-10T13:35:50;9.50;;;8.38;;
10031;SDS011;5056;44.272;19.892;2023-06-10T13:38:23;9.23;;;8.52;;
10031;SDS011;5056;44.272;19.892;2023-06-10T13:40:50;10.00;;;9.07;;
10031;SDS011;5056;44.272;19.892;2023-06-10T13:43:23;11.05;;;9.38;;
10031;SDS011;5056;44.272;19.892;2023-06-10T13:45:51;9.75;;;8.90;;
10031;SDS011;5056;44.272;19.892;2023-06-10T13:48:18;9.75;;;8.95;;
10031;SDS011;5056;44.272;19.892;2023-06-10T13:50:45;9.07;;;8.38;;
10031;SDS011;5056;44.272;19.892;2023-06-10T13:53:15;10.93;;;9.85;;
10031;SDS011;5056;44.272;19.892;2023-06-10T13:55:42;15.15;;;12.30;;
10031;SDS011;5056;44.272;19.892;2023-06-10T13:58:11;10.75;;;9.70;;
10031;SDS011;5056;44.272;19.892;2023-06-10T14:00:38;12.68;;;10.55;;
10031;SDS011;5056;44.272;19.892;2023-06-10T14:03:06;8.85;;;8.07;;
10031;SDS011;5056;44.272;19.892;2023-06-10T14:05:34;7.68;;;7.05;;
10031;SDS011;5056;44.272;19.892;2023-06-10T14:08:02;6.40;;;5.82;;
10031;SDS011;5056;44.272;19.892;2023-06-10T14:10:47;6.45;;;5.95;;
10031;SDS011;5056;44.272;19.892;2023-06-10T14:13:19;5.10;;;4.70;;
10031;SDS011;5056;44.272;19.892;2023-06-10T14:15:46;5.15;;;4.68;;
10031;SDS011;5056;44.272;19.892;2023-06-10T14:18:16;5.20;;;4.82;;
10031;SDS011;5056;44.272;19.892;2023-06-10T14:20:43;4.57;;;4.28;;
10031;SDS011;5056;44.272;19.892;2023-06-10T14:23:12;5.43;;;4.95;;
10031;SDS011;5056;44.272;19.892;2023-06-10T14:25:40;4.65;;;4.32;;
10031;SDS011;5056;44.272;19.892;2023-06-10T14:28:09;4.57;;;4.28;;
10031;SDS011;5056;44.272;19.892;2023-06-10T14:30:36;4.22;;;3.92;;
10031;SDS011;5056;44.272;19.892;2023-06-10T14:33:07;4.72;;;4.32;;
10031;SDS011;5056;44.272;19.892;2023-06-10T14:36:00;4.57;;;4.28;;
10031;SDS011;5056;44.272;19.892;2023-06-10T14:38:30;6.18;;;4.60;;
10031;SDS011;5056;44.272;19.892;2023-06-10T14:40:58;4.55;;;4.18;;
10031;SDS011;5056;44.272;19.892;2023-06-10T14:43:28;4.00;;;3.70;;
10031;SDS011;5056;44.272;19.892;2023-06-10T14:45:55;4.10;;;3.38;;
10031;SDS011;5056;44.272;19.892;2023-06-10T14:48:26;3.95;;;3.50;;
10031;SDS011;5056;44.272;19.892;2023-06-10T14:50:53;3.53;;;3.28;;
10031;SDS011;5056;44.272;19.892;2023-06-10T14:53:21;3.50;;;3.25;;
10031;SDS011;5056;44.272;19.892;2023-06-10T14:55:48;3.60;;;3.38;;
10031;SDS011;5056;44.272;19.892;2023-06-10T14:58:18;3.70;;;3.30;;
10031;SDS011;5056;44.272;19.892;2023-06-10T15:00:49;4.00;;;3.70;;
10031;SDS011;5056;44.272;19.892;2023-06-10T15:03:17;6.35;;;3.80;;
10031;SDS011;5056;44.272;19.892;2023-06-10T15:05:45;3.92;;;3.70;;
10031;SDS011;5056;44.272;19.892;2023-06-10T15:08:13;4.25;;;3.58;;
10031;SDS011;5056;44.272;19.892;2023-06-10T15:10:41;3.50;;;3.20;;
10031;SDS011;5056;44.272;19.892;2023-06-10T15:13:08;3.00;;;2.90;;
10031;SDS011;5056;44.272;19.892;2023-06-10T15:15:41;3.25;;;3.05;;
10031;SDS011;5056;44.272;19.892;2023-06-10T15:18:11;2.85;;;2.75;;
10031;SDS011;5056;44.272;19.892;2023-06-10T15:20:38;2.75;;;2.65;;
10031;SDS011;5056;44.272;19.892;2023-06-10T15:23:17;3.08;;;2.88;;
10031;SDS011;5056;44.272;19.892;2023-06-10T15:25:45;3.17;;;2.97;;